createdAt,value
2023-09-13T00:02:26.447Z,59.25
2023-09-13T00:04:55.849Z,59.08
2023-09-13T00:07:24.184Z,59.82
2023-09-13T00:09:52.314Z,59.52
2023-09-13T00:12:20.293Z,59.66
2023-09-13T00:14:49.455Z,59.79
2023-09-13T00:17:18.893Z,59.81
2023-09-13T00:19:48.250Z,59.97
2023-09-13T00:22:16.593Z,59.82
2023-09-13T00:24:44.658Z,59.71
2023-09-13T00:27:12.637Z,60.24
2023-09-13T00:29:40.700Z,60.36
2023-09-13T00:32:08.824Z,60.99
2023-09-13T00:34:36.822Z,60.17
2023-09-13T00:37:06.419Z,60.09
2023-09-13T00:39:34.681Z,60.53
2023-09-13T00:42:02.726Z,60.11
2023-09-13T00:44:30.762Z,61.61
2023-09-13T00:46:59.057Z,61.89
2023-09-13T00:49:27.790Z,62.30
2023-09-13T00:51:56.576Z,62.83
2023-09-13T00:54:26.913Z,63.10
2023-09-13T00:56:55.124Z,62.26
2023-09-13T00:59:23.513Z,62.77
2023-09-13T01:01:51.589Z,63.35
2023-09-13T01:04:19.916Z,63.34
2023-09-13T01:06:48.536Z,64.10
2023-09-13T01:09:17.155Z,63.72
2023-09-13T01:11:47.022Z,63.98
2023-09-13T01:14:15.036Z,64.37
2023-09-13T01:16:51.312Z,65.58
2023-09-13T01:19:40.096Z,66.30
2023-09-13T01:22:26.331Z,66.85
2023-09-13T01:25:41.535Z,66.20
2023-09-13T01:28:17.550Z,66.13
2023-09-13T01:30:47.232Z,65.96
2023-09-13T01:33:15.374Z,65.00
2023-09-13T01:35:43.481Z,66.03
2023-09-13T01:38:12.084Z,66.45
2023-09-13T01:40:43.289Z,66.91
2023-09-13T01:43:12.077Z,66.70
2023-09-13T01:45:40.940Z,67.47
2023-09-13T01:48:12.241Z,67.01
2023-09-13T01:50:41.169Z,66.42
2023-09-13T01:53:09.196Z,66.83
2023-09-13T01:55:37.770Z,66.97
2023-09-13T01:58:06.105Z,67.21
2023-09-13T02:00:34.170Z,67.61
2023-09-13T02:03:02.379Z,67.24
2023-09-13T02:05:31.848Z,67.75
2023-09-13T02:08:00.255Z,67.83
2023-09-13T02:10:28.291Z,69.30
2023-09-13T02:12:56.358Z,69.40
2023-09-13T02:15:24.390Z,68.88
2023-09-13T02:17:52.553Z,68.96
2023-09-13T02:20:20.619Z,69.49
2023-09-13T02:22:49.991Z,69.67
2023-09-13T02:25:18.755Z,69.46
2023-09-13T02:27:46.836Z,68.50
2023-09-13T02:30:14.983Z,69.37
2023-09-13T02:32:43.353Z,68.70
2023-09-13T02:35:12.961Z,69.34
2023-09-13T02:37:41.428Z,69.61
2023-09-13T02:40:12.909Z,69.53
2023-09-13T02:42:41.029Z,68.91
2023-09-13T02:45:10.503Z,69.60
2023-09-13T02:47:38.531Z,68.88
2023-09-13T02:50:07.537Z,69.27
2023-09-13T02:52:36.687Z,69.57
2023-09-13T02:55:06.778Z,69.12
2023-09-13T02:57:36.219Z,69.71
2023-09-13T03:00:06.157Z,69.12
2023-09-13T03:02:34.409Z,69.13
2023-09-13T03:05:02.472Z,69.36
2023-09-13T03:07:30.468Z,68.86
2023-09-13T03:09:58.949Z,68.41
2023-09-13T03:12:27.140Z,68.86
2023-09-13T03:14:58.348Z,68.26
2023-09-13T03:17:26.422Z,68.19
2023-09-13T03:19:54.738Z,69.00
2023-09-13T03:22:22.800Z,70.55
2023-09-13T03:24:50.922Z,70.50
2023-09-13T03:27:18.936Z,70.92
2023-09-13T03:29:46.969Z,70.35
2023-09-13T03:32:16.358Z,70.44
2023-09-13T03:34:44.353Z,70.59
2023-09-13T03:37:12.830Z,71.35
2023-09-13T03:39:40.820Z,72.23
2023-09-13T03:42:08.899Z,72.67
2023-09-13T03:44:36.948Z,73.71
2023-09-13T03:47:05.271Z,75.33
2023-09-13T03:49:34.706Z,75.57
2023-09-13T03:52:04.246Z,75.13
2023-09-13T03:54:32.276Z,74.82
2023-09-13T03:57:00.287Z,74.42
2023-09-13T03:59:28.248Z,74.62
2023-09-13T04:01:59.135Z,74.66
2023-09-13T04:04:27.808Z,76.02
2023-09-13T04:06:57.288Z,76.69
2023-09-13T04:09:25.402Z,76.88
2023-09-13T04:11:53.409Z,77.47
2023-09-13T04:14:21.423Z,77.77
2023-09-13T04:16:49.513Z,78.30
2023-09-13T04:19:17.603Z,78.24
2023-09-13T04:21:45.779Z,77.94
2023-09-13T04:24:15.267Z,77.31
2023-09-13T04:26:43.375Z,75.83
2023-09-13T04:29:11.345Z,75.05
2023-09-13T04:31:39.504Z,73.94
2023-09-13T04:34:07.610Z,73.30
2023-09-13T04:36:36.789Z,72.23
2023-09-13T04:39:05.433Z,71.69
2023-09-13T04:41:34.825Z,70.66
2023-09-13T04:44:03.426Z,69.25
2023-09-13T04:46:31.664Z,68.14
2023-09-13T04:48:59.782Z,67.40
2023-09-13T04:51:27.954Z,65.95
2023-09-13T04:53:56.192Z,63.86
2023-09-13T04:56:24.337Z,63.48
2023-09-13T04:58:53.712Z,62.72
2023-09-13T05:01:21.870Z,62.41
2023-09-13T05:03:51.169Z,61.44
2023-09-13T05:06:19.511Z,61.28
2023-09-13T05:08:47.706Z,60.41
2023-09-13T05:11:15.717Z,59.56
2023-09-13T05:13:44.083Z,58.45
2023-09-13T05:16:14.068Z,57.58
2023-09-13T05:18:42.451Z,58.08
2023-09-13T05:21:10.578Z,57.84
2023-09-13T05:23:38.602Z,57.62
2023-09-13T05:26:06.827Z,56.59
2023-09-13T05:28:35.415Z,56.16
2023-09-13T05:31:04.299Z,55.33
2023-09-13T05:33:35.232Z,54.53
2023-09-13T05:36:05.358Z,54.05
2023-09-13T05:38:33.855Z,53.29
2023-09-13T05:41:08.487Z,53.17
2023-09-13T05:43:36.626Z,52.58
2023-09-13T05:46:04.950Z,52.51
2023-09-13T05:48:34.541Z,51.27
2023-09-13T05:51:02.788Z,51.38
2023-09-13T05:53:31.104Z,50.46
2023-09-13T05:55:59.620Z,49.72
2023-09-13T05:58:27.715Z,49.86
2023-09-13T06:00:57.212Z,49.53
2023-09-13T06:03:25.789Z,49.88
2023-09-13T06:05:55.314Z,49.02
2023-09-13T06:08:23.344Z,48.98
2023-09-13T06:10:51.504Z,47.61
2023-09-13T06:13:19.550Z,46.68
2023-09-13T06:15:47.591Z,47.43
2023-09-13T06:18:15.922Z,48.04
2023-09-13T06:20:44.554Z,48.59
2023-09-13T06:23:35.012Z,50.03
2023-09-13T06:26:03.773Z,49.03
2023-09-13T06:28:32.389Z,47.58
2023-09-13T06:31:04.526Z,46.94
2023-09-13T06:33:41.704Z,46.52
2023-09-13T06:36:12.229Z,46.14
2023-09-13T06:38:43.088Z,47.17
2023-09-13T06:41:11.444Z,46.97
2023-09-13T06:44:00.812Z,45.83
2023-09-13T06:46:31.160Z,46.11
2023-09-13T06:48:59.817Z,44.89
2023-09-13T06:54:02.111Z,44.53
2023-09-13T06:56:34.196Z,44.73
2023-09-13T06:59:06.848Z,45.44
2023-09-13T07:01:58.616Z,45.46
2023-09-13T07:04:31.577Z,45.10
2023-09-13T07:07:04.689Z,46.13
2023-09-13T07:09:34.178Z,46.01
2023-09-13T07:12:02.251Z,44.27
2023-09-13T07:14:30.409Z,44.06
2023-09-13T07:16:58.459Z,43.97
2023-09-13T07:19:26.593Z,43.17
2023-09-13T07:21:54.606Z,43.05
2023-09-13T07:24:22.793Z,42.31
2023-09-13T07:26:52.188Z,43.02
2023-09-13T07:29:20.618Z,42.55
2023-09-13T07:31:48.977Z,42.91
2023-09-13T07:34:30.890Z,42.48
2023-09-13T07:37:00.403Z,42.02
2023-09-13T07:39:29.534Z,42.64
2023-09-13T07:41:59.808Z,41.90
2023-09-13T07:44:28.012Z,41.96
2023-09-13T07:46:56.157Z,41.52
2023-09-13T07:49:27.383Z,41.63
2023-09-13T07:51:55.503Z,41.22
2023-09-13T07:54:23.525Z,41.39
2023-09-13T07:56:51.732Z,41.89
2023-09-13T07:59:22.501Z,41.91
2023-09-13T08:01:51.676Z,41.03
2023-09-13T08:04:20.408Z,40.19
2023-09-13T08:06:49.025Z,40.13
2023-09-13T08:09:17.945Z,39.82
2023-09-13T08:11:48.367Z,39.78
2023-09-13T08:14:16.438Z,39.85
2023-09-13T08:16:46.691Z,39.65
2023-09-13T08:19:15.271Z,38.85
2023-09-13T08:21:43.478Z,37.49
2023-09-13T08:24:11.715Z,36.94
2023-09-13T08:26:40.013Z,37.46
2023-09-13T08:29:08.098Z,36.25
2023-09-13T08:31:36.113Z,36.59
2023-09-13T08:34:05.878Z,36.55
2023-09-13T08:36:35.286Z,36.38
2023-09-13T08:39:06.473Z,36.05
2023-09-13T08:41:35.036Z,35.35
2023-09-13T08:44:06.126Z,35.65
2023-09-13T08:46:35.552Z,35.82
2023-09-13T08:49:07.364Z,35.31
2023-09-13T08:51:36.572Z,35.29
2023-09-13T08:54:05.479Z,34.96
2023-09-13T08:56:33.855Z,34.00
2023-09-13T08:59:02.962Z,33.42
2023-09-13T09:01:32.966Z,32.72
2023-09-13T09:04:02.428Z,32.75
2023-09-13T09:06:33.649Z,32.91
2023-09-13T09:09:05.357Z,33.08
2023-09-13T09:11:35.390Z,32.78
2023-09-13T09:14:04.767Z,32.38
2023-09-13T09:16:33.599Z,32.76
2023-09-13T09:19:06.080Z,31.78
2023-09-13T09:21:36.358Z,31.16
2023-09-13T09:24:04.609Z,30.03
2023-09-13T09:26:32.919Z,29.72
2023-09-13T09:29:11.935Z,28.96
2023-09-13T09:31:40.383Z,29.14
2023-09-13T09:34:08.710Z,29.29
2023-09-13T09:36:43.727Z,29.41
2023-09-13T09:39:12.602Z,30.63
2023-09-13T09:41:41.637Z,29.99
2023-09-13T09:44:10.013Z,29.48
2023-09-13T09:46:38.559Z,30.50
2023-09-13T09:49:07.036Z,30.63
2023-09-13T09:51:35.416Z,29.35
2023-09-13T09:54:04.969Z,29.61
2023-09-13T09:56:33.015Z,29.01
2023-09-13T09:59:02.145Z,29.40
2023-09-13T10:01:32.514Z,28.69
2023-09-13T10:04:10.221Z,28.14
2023-09-13T10:06:38.457Z,28.76
2023-09-13T10:09:08.121Z,27.48
2023-09-13T10:11:37.519Z,26.67
2023-09-13T10:14:05.639Z,27.01
2023-09-13T10:16:35.066Z,26.81
2023-09-13T10:19:07.389Z,26.81
2023-09-13T10:21:36.490Z,27.13
2023-09-13T10:24:08.539Z,27.11
2023-09-13T10:26:37.185Z,26.02
2023-09-13T10:29:13.145Z,25.82
2023-09-13T10:31:44.737Z,26.17
2023-09-13T10:34:18.493Z,26.14
2023-09-13T10:36:50.930Z,25.87
2023-09-13T10:39:24.835Z,26.40
2023-09-13T10:42:00.241Z,25.84
2023-09-13T10:44:28.318Z,25.81
2023-09-13T10:46:57.757Z,26.16
2023-09-13T10:49:26.870Z,26.34
2023-09-13T10:51:57.415Z,26.91
2023-09-13T10:54:27.908Z,25.67
2023-09-13T10:56:56.202Z,26.34
2023-09-13T10:59:26.990Z,26.03
2023-09-13T11:01:55.208Z,25.26
2023-09-13T11:04:25.228Z,25.22
2023-09-13T11:06:55.724Z,25.27
2023-09-13T11:09:30.181Z,24.82
2023-09-13T11:11:59.450Z,23.92
2023-09-13T11:14:28.646Z,24.52
2023-09-13T11:16:58.910Z,24.48
2023-09-13T11:19:28.645Z,24.83
2023-09-13T11:22:01.669Z,23.74
2023-09-13T11:24:54.623Z,24.32
2023-09-13T11:27:27.438Z,24.26
2023-09-13T11:30:00.287Z,23.77
2023-09-13T11:32:32.698Z,23.38
2023-09-13T11:35:02.478Z,23.81
2023-09-13T11:37:34.652Z,23.79
2023-09-13T11:40:13.409Z,23.36
2023-09-13T11:45:32.438Z,22.29
2023-09-13T11:48:03.970Z,22.20
2023-09-13T11:50:48.941Z,22.07
2023-09-13T11:53:26.354Z,21.90
2023-09-13T11:56:11.716Z,21.69
2023-09-13T11:58:55.847Z,21.65
2023-09-13T12:01:27.740Z,20.45
2023-09-13T12:06:33.497Z,20.54
2023-09-13T12:09:15.089Z,20.17
2023-09-13T12:11:48.869Z,20.26
2023-09-13T12:14:30.818Z,19.63
2023-09-13T12:17:08.936Z,19.74
2023-09-13T12:19:38.600Z,19.31
2023-09-13T12:22:07.010Z,20.16
2023-09-13T12:24:52.980Z,21.09
2023-09-13T12:27:25.128Z,21.66
2023-09-13T12:29:53.421Z,21.18
2023-09-13T12:32:21.916Z,21.70
2023-09-13T12:34:50.429Z,21.55
2023-09-13T12:37:18.961Z,22.05
2023-09-13T12:39:47.063Z,21.28
2023-09-13T12:42:16.328Z,20.81
2023-09-13T12:44:47.460Z,20.87
2023-09-13T12:47:19.169Z,21.07
2023-09-13T12:49:47.637Z,21.24
2023-09-13T12:52:17.736Z,21.63
2023-09-13T12:54:47.422Z,21.69
2023-09-13T12:57:15.980Z,22.04
2023-09-13T12:59:48.141Z,22.27
2023-09-13T13:02:17.406Z,22.82
2023-09-13T13:04:46.431Z,22.83
2023-09-13T13:07:22.847Z,22.76
2023-09-13T13:09:54.478Z,22.33
2023-09-13T13:12:22.829Z,22.54
2023-09-13T13:14:53.258Z,23.05
2023-09-13T13:17:22.587Z,23.27
2023-09-13T13:19:56.792Z,23.53
2023-09-13T13:22:28.745Z,23.89
2023-09-13T13:24:57.058Z,24.06
2023-09-13T13:27:25.486Z,23.97
2023-09-13T13:29:57.575Z,23.75
2023-09-13T13:32:25.596Z,23.96
2023-09-13T13:34:53.748Z,24.19
2023-09-13T13:37:22.057Z,24.51
2023-09-13T13:39:51.238Z,24.23
2023-09-13T13:42:19.394Z,23.76
2023-09-13T13:44:47.486Z,23.90
2023-09-13T13:47:16.935Z,23.72
2023-09-13T13:49:45.270Z,24.11
2023-09-13T13:52:13.346Z,23.77
2023-09-13T13:54:41.875Z,23.33
2023-09-13T13:57:10.199Z,23.36
2023-09-13T13:59:38.505Z,23.55
2023-09-13T14:02:07.355Z,23.86
2023-09-13T14:04:37.608Z,24.06
2023-09-13T14:07:06.464Z,23.90
2023-09-13T14:09:34.598Z,23.19
2023-09-13T14:12:02.684Z,23.83
2023-09-13T14:14:31.066Z,23.50
2023-09-13T14:16:59.946Z,23.52
2023-09-13T14:19:28.680Z,23.10
2023-09-13T14:21:59.954Z,22.72
2023-09-13T14:24:28.089Z,22.99
2023-09-13T14:26:56.784Z,22.82
2023-09-13T14:29:24.981Z,22.65
2023-09-13T14:31:57.563Z,23.05
2023-09-13T14:34:26.819Z,23.00
2023-09-13T14:36:55.658Z,22.85
2023-09-13T14:39:26.203Z,23.11
2023-09-13T14:41:54.787Z,23.46
2023-09-13T14:44:25.358Z,22.88
2023-09-13T14:46:54.378Z,22.89
2023-09-13T14:49:23.834Z,23.36
2023-09-13T14:51:52.234Z,22.85
2023-09-13T14:54:20.350Z,22.99
2023-09-13T14:56:50.248Z,23.21
2023-09-13T14:59:19.939Z,23.23
2023-09-13T15:01:48.053Z,22.87
2023-09-13T15:04:16.286Z,23.47
2023-09-13T15:06:44.758Z,23.00
2023-09-13T15:09:13.557Z,22.90
2023-09-13T15:11:42.844Z,22.81
2023-09-13T15:14:12.788Z,22.68
2023-09-13T15:16:42.617Z,22.97
2023-09-13T15:19:11.288Z,22.95
2023-09-13T15:21:41.103Z,23.44
2023-09-13T15:24:09.301Z,23.14
2023-09-13T15:26:37.541Z,23.20
2023-09-13T15:29:05.863Z,23.29
2023-09-13T15:32:01.609Z,23.55
2023-09-13T15:34:23.299Z,23.47
2023-09-13T15:36:52.566Z,23.32
2023-09-13T15:39:21.174Z,23.49
2023-09-13T15:41:49.727Z,23.72
2023-09-13T15:44:18.102Z,24.19
2023-09-13T15:46:49.676Z,23.84
2023-09-13T15:49:23.475Z,24.37
2023-09-13T15:51:51.936Z,24.16
2023-09-13T15:54:20.577Z,24.72
2023-09-13T15:56:49.251Z,24.41
2023-09-13T15:59:17.365Z,24.75
2023-09-13T16:01:45.542Z,24.92
2023-09-13T16:04:15.124Z,25.02
2023-09-13T16:06:43.459Z,25.09
2023-09-13T16:09:12.384Z,25.15
2023-09-13T16:11:40.573Z,25.33
2023-09-13T16:14:09.438Z,25.43
2023-09-13T16:16:38.150Z,25.28
2023-09-13T16:19:06.527Z,24.90
2023-09-13T16:21:36.058Z,25.52
2023-09-13T16:24:04.420Z,25.30
2023-09-13T16:26:32.946Z,25.04
2023-09-13T16:29:00.988Z,25.50
2023-09-13T16:31:30.997Z,25.28
2023-09-13T16:34:01.320Z,24.96
2023-09-13T16:36:30.776Z,25.40
2023-09-13T16:39:00.188Z,26.19
2023-09-13T16:41:28.762Z,27.16
2023-09-13T16:44:00.225Z,27.24
2023-09-13T16:46:28.900Z,27.56
2023-09-13T16:48:57.360Z,27.84
2023-09-13T16:51:25.775Z,29.25
2023-09-13T16:53:53.878Z,29.98
2023-09-13T16:56:25.725Z,30.79
2023-09-13T16:58:56.487Z,32.06
2023-09-13T17:01:24.605Z,33.33
2023-09-13T17:03:53.879Z,33.69
2023-09-13T17:06:22.665Z,33.81
2023-09-13T17:08:51.032Z,34.61
2023-09-13T17:11:19.789Z,34.52
2023-09-13T17:13:49.356Z,34.96
2023-09-13T17:16:18.023Z,35.03
2023-09-13T17:18:46.269Z,35.20
2023-09-13T17:21:14.877Z,35.38
2023-09-13T17:23:42.928Z,35.68
2023-09-13T17:26:10.915Z,36.03
2023-09-13T17:28:39.006Z,36.84
2023-09-13T17:31:08.485Z,36.74
2023-09-13T17:33:37.243Z,36.19
2023-09-13T17:36:06.866Z,36.64
2023-09-13T17:38:35.303Z,36.46
2023-09-13T17:41:04.133Z,37.18
2023-09-13T17:43:32.199Z,36.76
2023-09-13T17:46:00.494Z,37.43
2023-09-13T17:48:29.980Z,37.13
2023-09-13T17:50:58.098Z,37.51
2023-09-13T17:53:26.161Z,38.14
2023-09-13T17:55:55.971Z,38.24
2023-09-13T17:58:24.170Z,38.32
2023-09-13T18:00:52.309Z,38.24
2023-09-13T18:03:20.537Z,38.53
2023-09-13T18:05:50.238Z,39.05
2023-09-13T18:08:18.321Z,39.42
2023-09-13T18:10:46.662Z,39.22
2023-09-13T18:13:14.750Z,39.94
2023-09-13T18:15:43.114Z,40.61
2023-09-13T18:18:11.452Z,41.19
2023-09-13T18:20:39.846Z,41.44
2023-09-13T18:23:09.726Z,41.99
2023-09-13T18:25:37.760Z,42.17
2023-09-13T18:28:06.964Z,42.41
2023-09-13T18:30:35.438Z,42.84
2023-09-13T18:33:03.790Z,43.29
2023-09-13T18:35:35.147Z,43.46
2023-09-13T18:38:04.521Z,43.27
2023-09-13T18:40:34.061Z,43.64
2023-09-13T18:43:04.290Z,44.29
2023-09-13T18:45:38.195Z,43.96
2023-09-13T18:48:09.192Z,44.12
2023-09-13T18:50:37.589Z,44.28
2023-09-13T18:53:06.045Z,44.66
2023-09-13T18:55:35.441Z,44.49
2023-09-13T18:58:04.079Z,45.01
2023-09-13T19:00:33.551Z,45.22
2023-09-13T19:03:01.692Z,45.83
2023-09-13T19:05:29.831Z,45.94
2023-09-13T19:07:57.830Z,45.74
2023-09-13T19:10:25.913Z,45.87
2023-09-13T19:12:55.359Z,46.47
2023-09-13T19:15:23.449Z,46.42
2023-09-13T19:17:52.831Z,46.45
2023-09-13T19:20:22.920Z,46.39
2023-09-13T19:22:51.329Z,46.19
2023-09-13T19:25:20.352Z,45.94
2023-09-13T19:27:48.810Z,46.02
2023-09-13T19:30:18.588Z,46.03
2023-09-13T19:32:46.635Z,45.93
2023-09-13T19:35:15.718Z,46.74
2023-09-13T19:37:44.220Z,46.39
2023-09-13T19:40:13.117Z,46.70
2023-09-13T19:42:41.214Z,46.62
2023-09-13T19:45:09.892Z,47.15
2023-09-13T19:47:39.314Z,47.58
2023-09-13T19:50:09.644Z,47.59
2023-09-13T19:52:37.754Z,47.38
2023-09-13T19:55:07.353Z,47.71
2023-09-13T19:57:35.427Z,47.54
2023-09-13T20:00:06.119Z,47.20
2023-09-13T20:02:34.227Z,47.47
2023-09-13T20:05:03.842Z,46.77
2023-09-13T20:07:35.959Z,47.04
2023-09-13T20:10:05.555Z,47.11
2023-09-13T20:12:33.794Z,46.89
2023-09-13T20:15:02.581Z,47.05
2023-09-13T20:17:31.988Z,47.48
2023-09-13T20:20:00.129Z,47.45
2023-09-13T20:22:32.237Z,47.78
2023-09-13T20:25:01.289Z,47.87
2023-09-13T20:27:29.411Z,47.92
2023-09-13T20:29:57.421Z,47.75
2023-09-13T20:32:26.022Z,48.16
2023-09-13T20:34:58.106Z,48.52
2023-09-13T20:37:27.498Z,48.30
2023-09-13T20:39:58.393Z,48.78
2023-09-13T20:42:27.385Z,48.57
2023-09-13T20:44:56.441Z,48.08
2023-09-13T20:47:25.749Z,48.23
2023-09-13T20:49:53.812Z,48.21
2023-09-13T20:52:22.015Z,47.84
2023-09-13T20:54:52.291Z,48.17
2023-09-13T20:57:21.694Z,47.94
2023-09-13T20:59:49.660Z,48.48
2023-09-13T21:02:17.788Z,48.82
2023-09-13T21:04:46.162Z,48.22
2023-09-13T21:07:14.359Z,48.93
2023-09-13T21:09:42.687Z,48.80
2023-09-13T21:12:11.626Z,48.62
2023-09-13T21:14:41.125Z,48.65
2023-09-13T21:17:09.154Z,49.12
2023-09-13T21:19:37.353Z,49.45
2023-09-13T21:22:05.813Z,49.05
2023-09-13T21:24:34.776Z,49.14
2023-09-13T21:27:02.846Z,48.95
2023-09-13T21:29:30.876Z,48.62
2023-09-13T21:32:00.296Z,48.60
2023-09-13T21:34:30.322Z,48.62
2023-09-13T21:36:58.419Z,48.64
2023-09-13T21:39:27.110Z,48.56
2023-09-13T21:41:55.080Z,48.85
2023-09-13T21:44:23.110Z,48.85
2023-09-13T21:46:53.391Z,49.28
2023-09-13T21:49:22.844Z,49.39
2023-09-13T21:51:51.010Z,49.34
2023-09-13T21:54:19.053Z,49.80
2023-09-13T21:56:47.075Z,49.91
2023-09-13T21:59:15.162Z,49.57
2023-09-13T22:01:43.535Z,49.71
2023-09-13T22:04:13.959Z,49.93
2023-09-13T22:06:43.690Z,50.00
2023-09-13T22:09:12.367Z,50.29
2023-09-13T22:11:40.620Z,50.14
2023-09-13T22:14:08.928Z,50.35
2023-09-13T22:16:37.107Z,50.67
2023-09-13T22:19:05.350Z,50.96
2023-09-13T22:21:35.088Z,51.08
2023-09-13T22:24:05.595Z,50.95
2023-09-13T22:26:33.888Z,51.43
2023-09-13T22:29:03.104Z,51.97
2023-09-13T22:31:31.305Z,52.18
2023-09-13T22:34:00.472Z,52.19
2023-09-13T22:36:29.621Z,52.64
2023-09-13T22:39:06.466Z,52.93
2023-09-13T22:41:41.512Z,52.77
2023-09-13T22:44:10.064Z,52.85
2023-09-13T22:46:38.528Z,52.84
2023-09-13T22:49:06.783Z,53.04
2023-09-13T22:51:34.933Z,53.12
2023-09-13T22:54:04.329Z,53.85
2023-09-13T22:56:32.521Z,54.18
2023-09-13T22:59:02.073Z,54.26
2023-09-13T23:01:30.212Z,54.15
2023-09-13T23:03:58.407Z,54.25
2023-09-13T23:06:54.515Z,54.13
2023-09-13T23:09:23.356Z,53.47
2023-09-13T23:11:51.769Z,54.00
2023-09-13T23:14:21.217Z,54.62
2023-09-13T23:16:49.348Z,54.18
2023-09-13T23:19:17.469Z,54.62
2023-09-13T23:21:45.574Z,54.91
2023-09-13T23:24:14.032Z,55.32
2023-09-13T23:26:42.649Z,55.19
2023-09-13T23:29:13.674Z,55.20
2023-09-13T23:31:43.565Z,55.31
2023-09-13T23:34:12.944Z,55.76
2023-09-13T23:36:41.169Z,56.39
2023-09-13T23:39:09.849Z,56.93
2023-09-13T23:41:38.096Z,57.10
2023-09-13T23:44:06.533Z,56.57
2023-09-13T23:46:34.722Z,56.34
2023-09-13T23:49:04.521Z,55.91
2023-09-13T23:51:32.749Z,56.30
2023-09-13T23:54:00.882Z,56.31
2023-09-13T23:56:29.101Z,56.73
2023-09-13T23:58:57.575Z,57.09
